Time;durP1;ratioP1;P1;durP2;ratioP2;P2;SDS_P1;SDS_P2;PMS_P1;PMS_P2;Temp;Humidity;BMP_temperature;BMP_pressure;BME280_temperature;BME280_humidity;BME280_pressure;Samples;Min_cycle;Max_cycle;Signal;HPM_P1;HPM_P2
2021/07/28 00:02:08;;;;;;;16.63;5.47;;;15.00;99.90;;;;;;4782974;29;20082;-90
2021/07/28 00:04:39;;;;;;;15.48;4.80;;;15.00;99.90;;;;;;4818900;29;20470;-89
2021/07/28 00:07:10;;;;;;;16.20;5.65;;;15.10;99.90;;;;;;4780724;29;20075;-90
2021/07/28 00:09:46;;;;;;;18.05;5.10;;;15.10;99.90;;;;;;4789805;29;20050;-90
2021/07/28 00:12:16;;;;;;;17.27;4.60;;;15.10;99.90;;;;;;4774194;29;20486;-90
2021/07/28 00:14:48;;;;;;;17.02;5.03;;;15.20;99.90;;;;;;4810911;29;20457;-90
2021/07/28 00:17:25;;;;;;;21.00;5.60;;;15.20;99.90;;;;;;4781611;29;20061;-91
2021/07/28 00:20:04;;;;;;;19.60;5.00;;;15.20;99.90;;;;;;4800881;29;20507;-90
2021/07/28 00:25:57;;;;;;;14.60;4.90;;;15.30;99.90;;;;;;4725837;30;20166;-90
2021/07/28 00:28:48;;;;;;;12.63;4.75;;;15.30;99.90;;;;;;4688217;30;20143;-90
2021/07/28 00:31:15;;;;;;;20.88;5.50;;;15.40;99.90;;;;;;4705417;30;20045;-90
2021/07/28 00:34:17;;;;;;;12.67;4.67;;;15.40;99.90;;;;;;4698986;30;20057;-90
2021/07/28 00:37:05;;;;;;;15.32;4.28;;;15.40;99.90;;;;;;4676075;30;20050;-90
2021/07/28 00:39:34;;;;;;;15.05;4.85;;;15.40;99.90;;;;;;4709680;30;20136;-90
2021/07/28 00:42:04;;;;;;;12.63;5.05;;;15.40;99.90;;;;;;4727032;30;20053;-89
2021/07/28 00:44:37;;;;;;;19.70;5.10;;;15.50;99.90;;;;;;4754877;30;20070;-90
2021/07/28 00:47:06;;;;;;;15.60;5.32;;;15.50;99.90;;;;;;4781145;29;20046;-90
2021/07/28 00:49:33;;;;;;;14.00;4.75;;;15.50;99.90;;;;;;4785365;29;20047;-90
2021/07/28 00:52:02;;;;;;;9.68;4.78;;;15.50;99.90;;;;;;4784645;29;20056;-90
2021/07/28 00:54:31;;;;;;;10.70;4.70;;;15.50;99.90;;;;;;4774973;29;20051;-90
2021/07/28 00:57:00;;;;;;;20.10;5.40;;;15.60;99.90;;;;;;4773003;29;20075;-90
2021/07/28 00:59:28;;;;;;;13.93;5.32;;;15.60;99.90;;;;;;4796039;29;20374;-90
2021/07/28 01:01:57;;;;;;;14.25;5.30;;;15.60;99.90;;;;;;4805123;29;20134;-90
2021/07/28 01:04:26;;;;;;;12.35;5.05;;;15.60;99.90;;;;;;4780764;29;20060;-90
2021/07/28 01:06:54;;;;;;;19.60;5.47;;;15.60;99.90;;;;;;4786435;29;20058;-89
2021/07/28 01:09:23;;;;;;;16.33;5.28;;;15.60;99.90;;;;;;4788019;29;20064;-90
2021/07/28 01:11:51;;;;;;;12.07;5.25;;;15.60;99.90;;;;;;4776649;29;20058;-90
2021/07/28 01:14:20;;;;;;;18.58;4.93;;;15.70;99.90;;;;;;4809928;29;20051;-89
2021/07/28 01:16:47;;;;;;;;;;;15.70;99.90;;;;;;4801946;29;20054;-90
2021/07/28 01:19:18;;;;;;;16.27;6.03;;;15.70;99.90;;;;;;4780197;29;19925;-90
2021/07/28 01:21:51;;;;;;;15.90;5.40;;;15.70;99.90;;;;;;4777646;29;20055;-91
2021/07/28 01:24:20;;;;;;;15.30;4.70;;;15.70;99.90;;;;;;4796845;29;20105;-89
2021/07/28 01:26:50;;;;;;;12.75;5.75;;;15.70;99.90;;;;;;4787684;29;20051;-90
2021/07/28 01:29:18;;;;;;;18.75;5.53;;;15.70;99.90;;;;;;4783088;29;20051;-90
2021/07/28 01:31:49;;;;;;;16.10;5.20;;;15.80;99.90;;;;;;4774992;29;20371;-90
2021/07/28 01:34:38;;;;;;;;;;;;;;;;;;;;;
2021/07/28 01:37:24;;;;;;;;;;;;;;;;;;;;;
2021/07/28 01:39:53;;;;;;;14.50;4.68;;;15.80;99.90;;;;;;4807537;29;20059;-90
2021/07/28 01:42:23;;;;;;;12.23;4.32;;;15.80;99.90;;;;;;4795102;29;20137;-90
2021/07/28 01:44:50;;;;;;;21.60;4.97;;;15.80;99.90;;;;;;4790613;29;20050;-90
2021/07/28 01:47:20;;;;;;;13.63;4.25;;;15.80;99.90;;;;;;4799502;29;20058;-90
2021/07/28 01:49:50;;;;;;;16.15;4.20;;;15.80;99.90;;;;;;4796344;29;20100;-90
2021/07/28 01:52:20;;;;;;;15.35;4.07;;;15.80;99.90;;;;;;4806357;29;20055;-90
2021/07/28 01:54:48;;;;;;;17.33;4.03;;;15.70;99.90;;;;;;4783222;29;20138;-90
2021/07/28 01:57:17;;;;;;;11.07;3.67;;;15.70;99.90;;;;;;4800607;29;20058;-90
2021/07/28 01:59:51;;;;;;;12.05;3.95;;;15.70;99.90;;;;;;4786249;29;20139;-91
2021/07/28 02:02:19;;;;;;;9.73;3.40;;;15.70;99.90;;;;;;4807594;29;20053;-90
2021/07/28 02:04:47;;;;;;;13.10;3.17;;;15.70;99.90;;;;;;4806594;29;20055;-90
2021/07/28 02:07:14;;;;;;;15.02;3.42;;;15.70;99.90;;;;;;4784487;29;20051;-90
2021/07/28 02:09:44;;;;;;;9.02;2.97;;;15.70;99.90;;;;;;4792222;29;20486;-89
2021/07/28 02:12:13;;;;;;;13.65;3.13;;;15.60;99.90;;;;;;4792620;29;20050;-90
2021/07/28 02:14:41;;;;;;;12.85;3.50;;;15.60;99.90;;;;;;4783227;29;20049;-89
2021/07/28 02:17:23;;;;;;;;;;;;;;;;;;;;;
2021/07/28 02:19:51;;;;;;;13.43;3.15;;;15.50;99.90;;;;;;4807061;29;20464;-89
2021/07/28 02:22:19;;;;;;;11.80;2.90;;;15.50;99.90;;;;;;4799199;29;20147;-90
2021/07/28 02:24:46;;;;;;;12.73;3.28;;;15.50;99.90;;;;;;4804020;29;20133;-90
2021/07/28 02:27:15;;;;;;;11.60;3.30;;;15.50;99.90;;;;;;4788035;29;20520;-89
2021/07/28 02:29:42;;;;;;;9.32;3.10;;;15.50;99.90;;;;;;4791181;29;20474;-90
2021/07/28 02:32:09;;;;;;;12.30;3.05;;;15.50;99.90;;;;;;4782096;29;20051;-89
2021/07/28 02:34:37;;;;;;;11.65;3.40;;;15.60;99.90;;;;;;4791686;29;20489;-90
2021/07/28 02:37:04;;;;;;;12.55;3.70;;;15.50;99.90;;;;;;4790979;29;20047;-90
2021/07/28 02:39:31;;;;;;;11.48;2.90;;;15.50;99.90;;;;;;4786171;29;20054;-89
2021/07/28 02:41:59;;;;;;;12.73;3.13;;;15.60;99.90;;;;;;4782093;29;20443;-89
2021/07/28 02:44:27;;;;;;;11.95;3.13;;;15.60;99.90;;;;;;4787783;29;20253;-90
2021/07/28 02:46:54;;;;;;;11.63;3.08;;;15.50;99.90;;;;;;4789741;29;20470;-90
2021/07/28 02:49:21;;;;;;;8.02;2.78;;;15.50;99.90;;;;;;4805007;29;20062;-89
2021/07/28 02:51:48;;;;;;;11.07;2.95;;;15.50;99.90;;;;;;4789477;29;20486;-90
2021/07/28 02:54:17;;;;;;;10.88;3.00;;;15.50;99.90;;;;;;4776461;29;20613;-89
2021/07/28 02:56:47;;;;;;;;;;;15.50;99.90;;;;;;4783028;29;20077;-90
2021/07/28 02:59:14;;;;;;;12.10;3.15;;;15.40;99.90;;;;;;4789511;29;19939;-90
2021/07/28 03:01:41;;;;;;;11.93;3.05;;;15.40;99.90;;;;;;4801707;29;20077;-89
2021/07/28 03:04:11;;;;;;;14.50;3.13;;;15.30;99.90;;;;;;4807317;29;20051;-89
2021/07/28 03:06:39;;;;;;;9.88;2.88;;;15.30;99.90;;;;;;4803699;29;20047;-89
2021/07/28 03:09:08;;;;;;;11.13;2.80;;;15.30;99.90;;;;;;4804887;29;20115;-89
2021/07/28 03:11:36;;;;;;;10.00;3.30;;;15.30;99.90;;;;;;4789460;29;20073;-89
2021/07/28 03:14:03;;;;;;;9.23;2.70;;;15.20;99.90;;;;;;4790041;29;20458;-90
2021/07/28 03:16:32;;;;;;;9.55;3.55;;;15.20;99.90;;;;;;4760002;29;20051;-89
2021/07/28 03:19:02;;;;;;;11.25;3.42;;;15.30;99.90;;;;;;4803720;29;20070;-90
2021/07/28 03:21:32;;;;;;;9.48;3.25;;;15.30;99.90;;;;;;4794239;29;20065;-90
2021/07/28 03:24:03;;;;;;;10.23;3.00;;;15.30;99.90;;;;;;4799433;29;20063;-90
2021/07/28 03:26:30;;;;;;;12.95;3.28;;;15.30;99.90;;;;;;4789268;29;21803;-90
2021/07/28 03:28:57;;;;;;;12.15;3.38;;;15.20;99.90;;;;;;4805696;29;20078;-89
2021/07/28 03:31:24;;;;;;;17.58;3.67;;;15.20;99.90;;;;;;4789162;29;20055;-90
2021/07/28 03:33:51;;;;;;;10.23;3.40;;;15.30;99.90;;;;;;4776461;29;20055;-90
2021/07/28 03:36:22;;;;;;;9.93;3.28;;;15.20;99.90;;;;;;4791431;29;20047;-90
2021/07/28 03:38:53;;;;;;;13.60;3.45;;;15.20;99.90;;;;;;4788425;29;20051;-89
2021/07/28 03:41:30;;;;;;;15.23;4.30;;;15.20;99.90;;;;;;4788651;29;20055;-90
2021/07/28 03:44:06;;;;;;;11.65;3.85;;;15.20;99.90;;;;;;4788369;29;20069;-90
2021/07/28 03:46:36;;;;;;;11.57;3.70;;;15.20;99.90;;;;;;4804267;29;20059;-89
2021/07/28 03:49:16;;;;;;;;;;;;;;;;;;;;;
2021/07/28 03:51:53;;;;;;;17.60;4.82;;;15.20;99.90;;;;;;4804008;29;20058;-89
2021/07/28 03:54:37;;;;;;;11.20;3.83;;;15.10;99.90;;;;;;4805199;29;20094;-89
2021/07/28 03:57:26;;;;;;;;;;;;;;;;;;;;;
2021/07/28 03:59:54;;;;;;;12.40;4.10;;;15.10;99.90;;;;;;4793126;29;20054;-89
2021/07/28 04:02:31;;;;;;;9.18;3.90;;;15.20;99.90;;;;;;4787221;29;20142;-89
2021/07/28 04:05:09;;;;;;;;;;;;;;;;;;;;;
2021/07/28 04:07:58;;;;;;;11.32;3.47;;;15.10;99.90;;;;;;4797669;29;20054;-90
2021/07/28 04:10:27;;;;;;;9.32;3.58;;;15.20;99.90;;;;;;4798827;29;20055;-90
2021/07/28 04:12:54;;;;;;;13.70;3.80;;;15.10;99.90;;;;;;4804339;29;20055;-88
2021/07/28 04:15:21;;;;;;;8.80;3.13;;;15.20;99.90;;;;;;4787186;29;20050;-88
2021/07/28 04:17:48;;;;;;;14.82;4.15;;;15.20;99.90;;;;;;4776422;29;20177;-90
2021/07/28 04:20:36;;;;;;;16.15;3.80;;;15.20;99.90;;;;;;4766093;29;20058;-90
2021/07/28 04:23:27;;;;;;;16.05;4.00;;;15.20;99.90;;;;;;4758446;29;20516;-90
2021/07/28 04:26:49;;;;;;;;;;;;;;;;;;;;;
2021/07/28 04:29:41;;;;;;;11.40;3.60;;;15.20;99.90;;;;;;4765169;29;20053;-89
2021/07/28 04:36:55;;;;;;;11.85;3.50;;;15.20;99.90;;;;;;4619927;30;20046;-95
2021/07/28 04:39:24;;;;;;;;;;;15.20;99.90;;;;;;4657028;30;20074;-88
2021/07/28 04:41:53;;;;;;;12.05;3.60;;;15.20;99.90;;;;;;4648512;30;19928;-89
2021/07/28 04:44:20;;;;;;;8.43;3.45;;;15.10;99.90;;;;;;4645811;30;20132;-89
2021/07/28 04:46:48;;;;;;;11.95;3.03;;;15.20;99.90;;;;;;4635686;30;20066;-89
2021/07/28 04:49:17;;;;;;;;;;;15.10;99.90;;;;;;4644638;30;20058;-89
2021/07/28 04:51:47;;;;;;;13.93;3.80;;;15.10;99.90;;;;;;4679813;30;19931;-90
2021/07/28 04:54:16;;;;;;;10.05;3.63;;;15.10;99.90;;;;;;4693176;30;20061;-89
2021/07/28 04:56:44;;;;;;;11.65;3.55;;;15.10;99.90;;;;;;4671420;30;20057;-89
2021/07/28 04:59:14;;;;;;;10.52;3.45;;;15.10;99.90;;;;;;4674212;30;20046;-89
2021/07/28 05:01:41;;;;;;;13.90;3.70;;;15.10;99.90;;;;;;4681917;30;20100;-88
2021/07/28 05:04:11;;;;;;;15.82;3.55;;;15.10;99.90;;;;;;4675807;30;20073;-89
2021/07/28 05:06:40;;;;;;;10.18;3.17;;;15.10;99.90;;;;;;4677794;30;20053;-89
2021/07/28 05:09:09;;;;;;;15.20;4.10;;;15.00;99.90;;;;;;4689209;30;20061;-88
2021/07/28 05:11:38;;;;;;;14.00;3.97;;;15.00;99.90;;;;;;4785115;29;20050;-89
2021/07/28 05:14:06;;;;;;;;;;;15.00;99.90;;;;;;4795260;29;20070;-90
2021/07/28 05:16:37;;;;;;;11.15;3.85;;;15.00;99.90;;;;;;4783305;29;19936;-89
2021/07/28 05:22:02;;;;;;;11.98;3.15;;;15.00;99.90;;;;;;5072663;24;20078;-88
2021/07/28 05:24:33;;;;;;;14.23;4.05;;;14.90;99.90;;;;;;4802819;29;20470;-89
2021/07/28 05:27:01;;;;;;;12.52;4.20;;;14.90;99.90;;;;;;4794303;29;20397;-89
2021/07/28 05:30:14;;;;;;;13.32;3.38;;;14.90;99.90;;;;;;4799694;29;20101;-91
2021/07/28 05:33:31;;;;;;;;;;;;;;;;;;;;;
2021/07/28 05:40:43;;;;;;;;;;;;;;;;;;;;;
2021/07/28 06:05:06;;;;;;;14.68;4.07;;;15.40;99.90;;;;;;6045224;22;1638523;-89
2021/07/28 06:07:36;;;;;;;13.52;4.85;;;15.50;99.90;;;;;;6132623;23;20013;-89
2021/07/28 06:10:26;;;;;;;11.85;4.25;;;15.60;99.90;;;;;;6120383;23;20321;-93
2021/07/28 06:12:53;;;;;;;13.73;3.70;;;15.60;99.90;;;;;;6133227;23;20018;-89
2021/07/28 06:15:21;;;;;;;9.82;3.83;;;15.70;99.90;;;;;;6131595;23;20100;-89
2021/07/28 06:17:58;;;;;;;12.75;3.80;;;15.80;99.90;;;;;;6132228;23;20022;-89
2021/07/28 06:20:25;;;;;;;13.55;3.83;;;15.80;99.90;;;;;;6131629;23;20025;-89
2021/07/28 06:22:52;;;;;;;13.38;3.78;;;15.90;99.90;;;;;;6132526;23;20045;-89
2021/07/28 06:25:19;;;;;;;16.25;4.57;;;16.00;99.90;;;;;;6131336;23;20014;-88
2021/07/28 06:27:49;;;;;;;12.45;3.85;;;16.00;99.90;;;;;;6133906;23;20032;-89
2021/07/28 06:30:18;;;;;;;15.65;3.60;;;16.10;99.90;;;;;;6131951;23;20369;-89
2021/07/28 06:32:48;;;;;;;10.63;3.95;;;16.30;99.90;;;;;;6120140;23;20303;-89
2021/07/28 06:37:53;;;;;;;11.95;3.65;;;16.50;99.90;;;;;;6169420;22;20037;-90
2021/07/28 06:40:27;;;;;;;14.40;3.70;;;16.70;99.90;;;;;;6185456;23;20377;-90
2021/07/28 06:42:57;;;;;;;10.80;3.25;;;16.80;99.90;;;;;;6176504;23;20015;-89
2021/07/28 06:45:27;;;;;;;12.38;3.40;;;16.90;99.90;;;;;;6150558;23;20541;-89
2021/07/28 06:47:59;;;;;;;11.88;3.20;;;17.00;99.90;;;;;;6181462;23;20088;-90
2021/07/28 06:50:41;;;;;;;9.82;3.58;;;17.00;99.90;;;;;;6160789;23;20063;-89
2021/07/28 06:53:09;;;;;;;10.35;3.03;;;17.00;99.90;;;;;;6184964;23;20039;-90
2021/07/28 06:55:41;;;;;;;8.63;2.83;;;17.00;99.90;;;;;;6163742;23;20109;-90
2021/07/28 06:58:10;;;;;;;7.53;3.10;;;17.00;99.90;;;;;;6161189;23;20013;-90
2021/07/28 07:00:43;;;;;;;10.63;3.13;;;17.10;99.90;;;;;;6180997;23;20303;-90
2021/07/28 07:03:20;;;;;;;10.15;3.35;;;17.10;99.90;;;;;;6152537;23;20013;-90
2021/07/28 07:05:50;;;;;;;8.80;2.65;;;17.20;99.90;;;;;;6143325;23;20016;-90
2021/07/28 07:08:20;;;;;;;11.75;2.50;;;17.20;99.90;;;;;;6144853;23;20044;-90
2021/07/28 07:10:54;;;;;;;11.93;2.80;;;17.30;99.90;;;;;;6180930;23;20036;-90
2021/07/28 07:13:33;;;;;;;9.85;2.67;;;17.40;99.90;;;;;;6174860;23;20021;-90
2021/07/28 07:20:32;;;;;;;;;;;;;;;;;;;;;
2021/07/28 07:23:02;;;;;;;10.82;2.70;;;17.50;99.90;;;;;;5957842;23;20024;-90
2021/07/28 07:25:29;;;;;;;8.60;2.30;;;17.70;99.90;;;;;;5960839;23;20020;-90
2021/07/28 07:27:57;;;;;;;8.88;3.05;;;17.90;99.90;;;;;;5982119;23;20097;-90
2021/07/28 07:30:29;;;;;;;8.45;2.10;;;18.00;99.90;;;;;;5970476;23;20086;-89
2021/07/28 07:35:43;;;;;;;7.78;1.88;;;18.20;99.90;;;;;;5970909;23;20031;-90
2021/07/28 07:38:13;;;;;;;6.40;2.20;;;18.20;99.90;;;;;;6104245;23;20077;-89
2021/07/28 07:40:43;;;;;;;6.93;2.30;;;18.30;99.90;;;;;;6124620;23;20025;-90
2021/07/28 07:43:11;;;;;;;11.05;2.10;;;18.30;99.90;;;;;;6096860;23;20093;-90
2021/07/28 07:45:38;;;;;;;9.88;2.60;;;18.30;99.90;;;;;;6099805;23;20048;-90
2021/07/28 07:48:08;;;;;;;8.10;1.70;;;18.30;99.90;;;;;;6123725;23;20050;-89
2021/07/28 07:50:35;;;;;;;7.35;1.80;;;18.40;99.90;;;;;;6087366;23;20040;-90
2021/07/28 07:53:13;;;;;;;7.63;2.08;;;18.50;99.90;;;;;;6099593;23;20461;-88
2021/07/28 07:55:45;;;;;;;6.72;1.90;;;18.70;99.90;;;;;;6088483;23;20438;-89
2021/07/28 07:58:19;;;;;;;6.85;2.08;;;18.90;99.90;;;;;;6088191;23;20152;-89
2021/07/28 08:00:46;;;;;;;5.15;1.83;;;19.00;99.90;;;;;;6186188;23;20032;-89
2021/07/28 08:03:26;;;;;;;;;;;;;;;;;;;;;
2021/07/28 08:06:31;;;;;;;7.03;1.95;;;18.90;99.90;;;;;;6067361;23;20515;-91
2021/07/28 08:09:37;;;;;;;5.50;2.00;;;19.10;99.90;;;;;;5993074;23;20027;-92
2021/07/28 08:13:11;;;;;;;;;;;;;;;;;;;;;
2021/07/28 08:16:20;;;;;;;;;;;;;;;;;;;;;
2021/07/28 08:29:31;;;;;;;12.48;2.67;;;19.40;99.90;;;;;;5058091;27;20438;-90
2021/07/28 08:32:06;;;;;;;7.93;1.92;;;19.10;99.90;;;;;;5048081;28;20099;-90
2021/07/28 08:34:37;;;;;;;6.35;2.08;;;19.10;99.90;;;;;;5032280;28;20048;-89
2021/07/28 08:37:05;;;;;;;7.53;1.77;;;19.10;99.90;;;;;;5036218;28;20044;-90
2021/07/28 08:39:34;;;;;;;8.13;2.15;;;19.10;99.90;;;;;;5057749;28;20409;-90
2021/07/28 08:42:05;;;;;;;8.50;2.17;;;19.10;99.90;;;;;;5036874;28;20051;-90
2021/07/28 08:44:38;;;;;;;5.38;1.80;;;19.10;99.90;;;;;;5035410;28;20052;-90
2021/07/28 08:47:08;;;;;;;5.63;1.63;;;19.20;99.90;;;;;;5067144;28;20704;-90
2021/07/28 08:49:38;;;;;;;7.90;1.90;;;19.10;99.90;;;;;;5043557;28;20120;-88
2021/07/28 08:52:05;;;;;;;6.18;1.80;;;19.10;99.90;;;;;;5038180;28;20067;-89
2021/07/28 08:54:37;;;;;;;4.05;1.63;;;19.10;99.90;;;;;;5048634;28;20547;-89
2021/07/28 08:57:10;;;;;;;5.43;1.90;;;19.10;99.90;;;;;;5056300;28;20447;-90
2021/07/28 08:59:41;;;;;;;7.93;1.98;;;19.10;99.90;;;;;;5073790;28;20048;-89
2021/07/28 09:02:09;;;;;;;7.00;1.77;;;19.20;99.90;;;;;;5067172;28;20128;-90
2021/07/28 09:04:39;;;;;;;7.63;2.22;;;19.40;99.90;;;;;;5067207;28;20049;-92
2021/07/28 09:07:16;;;;;;;6.57;1.88;;;19.60;99.90;;;;;;5049528;28;20055;-90
2021/07/28 09:09:54;;;;;;;5.28;1.70;;;20.00;99.90;;;;;;5047387;28;20440;-90
2021/07/28 09:12:32;;;;;;;3.55;1.70;;;20.20;99.90;;;;;;5046953;28;20411;-90
2021/07/28 09:15:05;;;;;;;5.78;1.70;;;20.20;99.90;;;;;;5066526;28;20416;-90
2021/07/28 09:17:37;;;;;;;5.95;1.50;;;20.10;99.90;;;;;;5049539;28;20059;-91
2021/07/28 09:20:06;;;;;;;4.93;1.85;;;20.00;99.90;;;;;;5040803;28;20040;-90
2021/07/28 09:22:39;;;;;;;6.68;1.63;;;20.00;99.90;;;;;;5032591;28;20052;-90
2021/07/28 09:25:18;;;;;;;5.75;1.75;;;19.90;99.90;;;;;;5047600;28;20546;-90
2021/07/28 09:27:46;;;;;;;;;;;19.80;99.90;;;;;;5048263;28;20071;-91
2021/07/28 09:30:29;;;;;;;4.05;1.35;;;19.90;99.90;;;;;;5052977;28;19920;-90
2021/07/28 09:33:10;;;;;;;9.07;2.08;;;19.80;99.90;;;;;;5035249;28;20122;-90
2021/07/28 09:35:46;;;;;;;;;;;19.90;99.90;;;;;;5025664;28;20060;-91
2021/07/28 09:38:47;;;;;;;6.53;1.55;;;19.90;99.90;;;;;;5032910;28;19921;-91
2021/07/28 09:41:21;;;;;;;3.30;1.30;;;19.90;99.90;;;;;;5023707;28;20045;-90
2021/07/28 09:44:04;;;;;;;6.68;1.52;;;19.90;99.90;;;;;;5027597;28;20092;-90
2021/07/28 09:47:13;;;;;;;5.90;1.63;;;19.80;99.90;;;;;;5036251;28;20049;-89
2021/07/28 09:49:45;;;;;;;4.93;1.45;;;19.80;99.90;;;;;;5027553;28;20491;-89
2021/07/28 09:52:34;;;;;;;4.85;1.50;;;19.80;99.90;;;;;;5046875;28;20109;-89
2021/07/28 09:55:27;;;;;;;3.05;1.10;;;20.00;99.90;;;;;;5034653;28;20103;-89
2021/07/28 09:57:59;;;;;;;5.93;1.38;;;20.00;99.90;;;;;;5024513;28;20049;-88
2021/07/28 10:00:29;;;;;;;4.32;1.38;;;20.10;99.90;;;;;;5042382;28;20041;-89
2021/07/28 10:03:01;;;;;;;4.82;1.55;;;20.10;99.90;;;;;;5036588;28;20041;-89
2021/07/28 10:05:36;;;;;;;5.57;1.30;;;20.20;99.90;;;;;;5035567;28;20072;-89
2021/07/28 10:08:07;;;;;;;5.65;1.60;;;20.20;99.90;;;;;;5035121;28;20056;-89
2021/07/28 10:10:37;;;;;;;5.63;1.40;;;20.20;99.90;;;;;;5038918;28;20064;-89
2021/07/28 10:13:05;;;;;;;4.05;1.17;;;20.20;99.90;;;;;;5038008;28;20049;-88
2021/07/28 10:15:33;;;;;;;6.07;1.30;;;20.40;99.90;;;;;;5052829;28;20136;-91
2021/07/28 10:18:03;;;;;;;4.60;1.40;;;20.30;99.90;;;;;;5036616;28;20053;-88
2021/07/28 10:20:33;;;;;;;5.22;0.95;;;20.30;99.90;;;;;;5041482;28;20065;-89
2021/07/28 10:23:01;;;;;;;4.47;1.10;;;20.10;99.90;;;;;;5054370;28;20122;-88
2021/07/28 10:25:29;;;;;;;4.05;1.50;;;20.10;99.90;;;;;;5034415;28;20564;-89
2021/07/28 10:27:57;;;;;;;1.67;0.77;;;20.00;99.90;;;;;;5034383;28;20073;-88
2021/07/28 10:30:24;;;;;;;3.92;1.48;;;20.10;99.90;;;;;;5035110;28;20049;-90
2021/07/28 10:32:51;;;;;;;5.10;1.50;;;20.30;99.90;;;;;;5042955;28;20053;-90
2021/07/28 10:35:30;;;;;;;3.13;1.25;;;20.30;99.90;;;;;;5053807;28;20056;-89
2021/07/28 10:38:04;;;;;;;4.32;1.55;;;20.40;99.90;;;;;;5052407;28;20061;-89
2021/07/28 10:40:48;;;;;;;2.80;1.08;;;20.40;99.90;;;;;;5034926;28;20128;-89
2021/07/28 10:43:17;;;;;;;4.30;1.40;;;20.50;99.90;;;;;;5032451;28;20055;-89
2021/07/28 10:45:58;;;;;;;3.17;1.25;;;20.50;99.90;;;;;;5051006;28;20388;-89
2021/07/28 10:48:48;;;;;;;3.63;1.50;;;20.50;99.90;;;;;;5035553;28;20077;-90
2021/07/28 10:51:53;;;;;;;3.67;1.38;;;20.60;99.90;;;;;;5032821;28;20052;-91
2021/07/28 10:54:49;;;;;;;3.90;1.63;;;20.60;99.90;;;;;;5040077;28;20048;-90
2021/07/28 10:57:39;;;;;;;4.78;1.45;;;20.60;99.90;;;;;;4969187;28;20059;-90
2021/07/28 11:00:08;;;;;;;3.90;1.23;;;20.70;99.90;;;;;;4953772;28;20049;-89
2021/07/28 11:02:57;;;;;;;5.00;1.60;;;20.50;99.90;;;;;;4976854;28;20454;-90
2021/07/28 11:05:28;;;;;;;3.95;1.20;;;20.50;99.90;;;;;;4950695;28;20091;-89
2021/07/28 11:08:04;;;;;;;4.20;1.25;;;20.60;99.90;;;;;;4957542;28;20055;-90
2021/07/28 11:10:38;;;;;;;5.50;1.60;;;20.80;99.90;;;;;;4974383;28;20051;-89
2021/07/28 11:13:19;;;;;;;5.07;1.50;;;20.90;99.90;;;;;;4959247;28;20054;-89
2021/07/28 11:15:55;;;;;;;6.47;1.60;;;21.10;99.90;;;;;;4943602;28;20158;-90
2021/07/28 11:18:31;;;;;;;5.05;1.38;;;21.30;99.90;;;;;;4941689;28;20053;-90
2021/07/28 11:21:14;;;;;;;6.13;1.58;;;21.40;99.90;;;;;;4963583;28;20050;-90
2021/07/28 11:23:45;;;;;;;3.85;1.55;;;21.40;99.90;;;;;;4971125;28;20490;-90
2021/07/28 11:26:17;;;;;;;7.00;1.60;;;21.40;99.90;;;;;;4955767;28;20402;-90
2021/07/28 11:28:46;;;;;;;8.57;1.90;;;21.20;99.90;;;;;;4955954;28;20129;-90
2021/07/28 11:31:13;;;;;;;4.20;1.70;;;21.30;99.90;;;;;;4964598;28;20073;-90
2021/07/28 11:33:41;;;;;;;5.85;1.83;;;21.10;99.90;;;;;;4988688;28;20086;-90
2021/07/28 11:36:12;;;;;;;8.95;2.22;;;21.10;99.90;;;;;;5013380;28;20053;-90
2021/07/28 11:38:39;;;;;;;6.93;2.15;;;21.10;99.90;;;;;;5031014;28;20051;-90
2021/07/28 11:41:10;;;;;;;7.47;2.00;;;21.10;99.90;;;;;;5012626;28;20111;-90
2021/07/28 11:43:41;;;;;;;7.78;2.10;;;21.10;99.90;;;;;;5027359;28;20046;-90
2021/07/28 11:46:18;;;;;;;6.10;2.00;;;21.20;99.90;;;;;;5019190;28;20041;-90
2021/07/28 11:48:50;;;;;;;6.63;2.22;;;21.10;99.90;;;;;;5022804;28;20111;-90
2021/07/28 11:51:31;;;;;;;6.20;1.80;;;21.00;99.90;;;;;;5029847;28;20053;-90
2021/07/28 11:54:22;;;;;;;5.18;1.63;;;20.90;99.90;;;;;;5033089;28;20073;-90
2021/07/28 11:56:57;;;;;;;;;;;20.80;99.90;;;;;;4998389;28;20465;-90
2021/07/28 11:59:31;;;;;;;7.22;2.00;;;20.60;99.90;;;;;;5011929;28;19975;-90
2021/07/28 12:02:02;;;;;;;5.63;2.28;;;20.60;99.90;;;;;;5012905;28;20053;-90
2021/07/28 12:04:35;;;;;;;5.65;1.98;;;20.60;99.90;;;;;;5013452;28;20114;-90
2021/07/28 12:07:13;;;;;;;5.57;1.65;;;20.70;99.90;;;;;;5002159;28;20053;-90
2021/07/28 12:10:04;;;;;;;6.22;2.33;;;20.70;99.90;;;;;;4976177;28;20054;-90
2021/07/28 12:12:31;;;;;;;6.05;2.08;;;20.60;99.90;;;;;;4995683;28;20421;-90
2021/07/28 12:15:12;;;;;;;5.53;1.85;;;20.50;99.90;;;;;;5009181;28;20393;-90
2021/07/28 12:17:52;;;;;;;4.70;1.60;;;20.60;99.90;;;;;;5008694;28;20041;-90
2021/07/28 12:20:19;;;;;;;8.85;2.03;;;20.50;99.90;;;;;;4987575;28;20049;-90
2021/07/28 12:22:46;;;;;;;6.07;1.92;;;20.50;99.90;;;;;;5018109;28;20104;-90
2021/07/28 12:25:16;;;;;;;7.97;2.15;;;20.50;99.90;;;;;;5010774;28;20500;-89
2021/07/28 12:27:55;;;;;;;5.40;1.98;;;20.40;99.90;;;;;;5020511;28;20042;-90
2021/07/28 12:30:38;;;;;;;4.47;2.25;;;20.50;99.90;;;;;;5012159;28;20046;-90
2021/07/28 12:33:13;;;;;;;8.10;2.08;;;20.60;99.90;;;;;;5009237;28;20058;-89
2021/07/28 12:35:41;;;;;;;7.10;2.25;;;20.70;99.90;;;;;;5003906;28;20042;-90
2021/07/28 12:38:20;;;;;;;7.75;1.63;;;20.90;99.90;;;;;;5009065;28;20042;-90
2021/07/28 12:41:00;;;;;;;7.95;1.90;;;21.00;99.90;;;;;;5012921;28;20053;-91
2021/07/28 12:43:29;;;;;;;5.93;1.73;;;20.90;99.90;;;;;;5028155;28;20065;-89
2021/07/28 12:45:59;;;;;;;8.65;1.67;;;20.90;99.90;;;;;;5015752;28;20052;-90
2021/07/28 12:48:32;;;;;;;7.40;1.90;;;20.90;99.90;;;;;;5010472;28;20042;-90
2021/07/28 12:51:02;;;;;;;8.68;1.65;;;21.00;99.90;;;;;;5009355;28;20045;-90
2021/07/28 12:53:31;;;;;;;8.18;1.88;;;21.00;99.90;;;;;;5006860;28;20354;-89
2021/07/28 12:55:59;;;;;;;6.63;1.63;;;21.10;99.90;;;;;;5007447;28;20041;-90
2021/07/28 12:58:27;;;;;;;5.60;2.00;;;21.30;99.90;;;;;;5009172;28;20136;-90
2021/07/28 13:00:56;;;;;;;6.45;1.77;;;21.40;99.90;;;;;;5007036;28;20410;-89
2021/07/28 13:03:26;;;;;;;7.43;1.70;;;21.50;99.90;;;;;;5005876;28;20141;-89
2021/07/28 13:05:57;;;;;;;6.70;2.00;;;21.60;99.90;;;;;;5010195;28;20359;-90
2021/07/28 13:08:27;;;;;;;4.30;1.63;;;21.50;99.90;;;;;;5001900;28;20679;-90
2021/07/28 13:10:56;;;;;;;6.78;1.75;;;21.50;99.90;;;;;;5027210;28;20121;-89
2021/07/28 13:13:23;;;;;;;8.38;1.60;;;21.20;99.90;;;;;;5007305;28;20169;-90
2021/07/28 13:15:51;;;;;;;6.30;1.88;;;21.00;99.90;;;;;;5003845;28;20482;-89
2021/07/28 13:18:18;;;;;;;5.32;1.75;;;20.80;99.90;;;;;;5004551;28;20049;-90
2021/07/28 13:20:46;;;;;;;6.78;1.92;;;20.90;99.90;;;;;;5010609;28;20077;-90
2021/07/28 13:23:17;;;;;;;9.73;2.13;;;20.80;99.90;;;;;;5011928;28;20375;-91
2021/07/28 13:25:45;;;;;;;4.22;1.88;;;20.70;99.90;;;;;;5013165;28;20440;-90
2021/07/28 13:28:22;;;;;;;5.45;2.53;;;20.60;99.90;;;;;;5021237;28;20053;-90
2021/07/28 13:30:49;;;;;;;5.60;2.08;;;20.60;99.90;;;;;;5010991;28;20379;-90
2021/07/28 13:33:16;;;;;;;7.07;2.70;;;20.40;99.90;;;;;;5011309;28;20056;-90
2021/07/28 13:35:44;;;;;;;10.45;2.38;;;20.40;99.90;;;;;;5012401;28;20133;-91
2021/07/28 13:38:14;;;;;;;5.78;1.73;;;20.50;99.90;;;;;;5001457;28;20084;-91
2021/07/28 13:40:41;;;;;;;6.55;1.60;;;20.60;99.90;;;;;;5028205;28;20144;-89
2021/07/28 13:43:09;;;;;;;6.43;1.67;;;20.60;99.90;;;;;;5015132;28;20042;-90
2021/07/28 13:45:37;;;;;;;3.10;1.48;;;20.60;99.90;;;;;;5022263;28;20473;-89
2021/07/28 13:48:04;;;;;;;6.25;1.80;;;20.80;99.90;;;;;;5018788;28;20128;-89
2021/07/28 13:50:32;;;;;;;3.80;1.40;;;20.90;99.90;;;;;;4994053;28;20046;-90
2021/07/28 13:53:01;;;;;;;5.25;1.63;;;21.00;99.90;;;;;;5011723;28;20064;-90
2021/07/28 13:55:31;;;;;;;8.32;1.48;;;21.10;99.90;;;;;;5004537;28;20103;-90
2021/07/28 13:57:58;;;;;;;3.45;1.40;;;21.10;99.90;;;;;;5016334;28;20108;-90
2021/07/28 14:00:27;;;;;;;4.82;1.42;;;21.20;99.90;;;;;;5015014;28;20040;-90
2021/07/28 14:02:59;;;;;;;4.72;1.67;;;21.20;99.90;;;;;;5016277;28;20211;-90
2021/07/28 14:05:31;;;;;;;4.97;1.40;;;21.00;99.90;;;;;;5013226;28;20066;-90
2021/07/28 14:07:59;;;;;;;3.97;1.45;;;21.10;99.90;;;;;;5015767;28;20132;-90
2021/07/28 14:10:30;;;;;;;4.60;1.55;;;21.10;99.90;;;;;;4997939;28;20485;-89
2021/07/28 14:12:57;;;;;;;4.85;1.50;;;21.20;99.90;;;;;;5031459;28;20038;-90
2021/07/28 14:15:32;;;;;;;5.20;1.50;;;21.20;99.90;;;;;;4974102;28;20041;-90
2021/07/28 14:18:17;;;;;;;5.07;1.17;;;21.30;99.90;;;;;;5016224;28;20473;-91
2021/07/28 14:20:48;;;;;;;6.47;1.60;;;21.30;99.90;;;;;;4987570;28;20061;-91
2021/07/28 14:23:16;;;;;;;3.17;1.20;;;21.20;99.90;;;;;;4994967;28;20046;-91
2021/07/28 14:25:51;;;;;;;3.03;1.00;;;21.10;99.90;;;;;;5014975;28;20358;-91
2021/07/28 14:28:23;;;;;;;5.53;1.42;;;21.20;99.90;;;;;;5014122;28;20405;-90
2021/07/28 14:30:56;;;;;;;3.65;1.30;;;21.30;99.90;;;;;;5030290;28;20518;-91